Mount Erie, IL (62446)

2:01 PM CDT on September 29, 2016 (GMT -0500)
Fairfield Municipal | | Change Station

Elev 436 ft 38.38 °N, 88.41 °W | Updated 6 minutes ago

Overcast
Overcast
66 °F
Feels Like 66 °F
N
6
Wind Variable Wind from North

Today
High -- | Low -- °F
--% Chance of Precip.
Yesterday
High -- | Low -- °F
Precip. -- in
Pressure 30.09 in
Visibility -9999.0 miles
Clouds Mostly Cloudy 3700 ft
Mostly Cloudy 4900 ft
Overcast 6500 ft
Dew Point 52 °F
Humidity 61%
Rainfall 0.00 in
Snow Depth Not available.
6:48 AM 6:38 PM
Waning Crescent, 1% visible
METAR KFWC 291855Z AUTO 35005KT BKN037 BKN049 OVC065 19/11 A3009 RMK AO1 T01900112 PWINO
Pressure 30.09 in
Visibility -9999.0 miles
Clouds Mostly Cloudy 3700 ft
Mostly Cloudy 4900 ft
Overcast 6500 ft
Dew Point 52 °F
Humidity 61%
Rainfall 0.00 in
Snow Depth Not available.
6:48 AM 6:38 PM
Waning Crescent, 1% visible
METAR KFWC 291855Z AUTO 35005KT BKN037 BKN049 OVC065 19/11 A3009 RMK AO1 T01900112 PWINO

10-Day Weather Forecast

Almanac

Astronomy

Sep. 29, 2016 Rise Set
Actual Time
Civil Twilight
Nautical Twilight
Astronomical Twilight
Moon
Length of Visible Light
Length of Day
Tomorrow will be .
, % of the Moon is Illuminated

Today's Extremes

State Highs State Lows

Community

WunderPhotos

Upload Photos

1,942,546 photos uploaded!

WunderBlog® & News

Nearby

Air Quality

  Air Quality AQ Index Pollutant
Not available.

Snow Depth

Station Depth Elevation

Earthquake Activity

City Distance Mag. Time & Date
Minimum magnitude displayed is 2.5.

Coastal Water Temperatures

Place Temperature

Stations

Nearby Weather Stations

Station Location Temp. Windchill Dew Point Humidity Wind Precip. Elev Updated Type
                   

Watches & Warnings

There are currently no watches in effect.